Fulton, Michigan
Current Conditions -  °F | °C
As of 1:53 PM on Saturday 25 Oct 2014 (Local Time) from KAZO Reporting Station
Clear Clear  
Wind Chill: 66°   Ceiling: Unl
Heat Index: 66°   Visibility: 10mi
Dew Point: 47°   Wind: 16mph
Humidity: 50%   Direction: 280°W
Pressure: 29.86"   Gusts: NA
Location:  42.11°N, 85.35°W
Report Text: KAZO 251753Z 28014KT 10SM CLR 19/08 A2986 RMK AO2 SLP113 T01890083 10189 20139 58008
Loading
Personal Weather Stations






























Interactive Weather Map
Tropical Storm Tracking
New forecast layout! Learn more

10-Day Weather Forecast

Advertisements
Track Severe Weather on mobile